Time;durP1;ratioP1;P1;durP2;ratioP2;P2;SDS_P1;SDS_P2;PMS_P1;PMS_P2;Temp;Humidity;BMP_temperature;BMP_pressure;BME280_temperature;BME280_humidity;BME280_pressure;Samples;Min_cycle;Max_cycle;Signal;HPM_P1;HPM_P2
2023/10/27 00:01:27;;;;;;;0.38;0.38;;;10.50;99.90;;;;;;4980432;28;20409;-66
2023/10/27 00:03:54;;;;;;;5.03;2.38;;;10.40;99.90;;;;;;4991599;28;20043;-65
2023/10/27 00:06:19;;;;;;;1.85;1.08;;;10.50;99.90;;;;;;4981836;28;20062;-66
2023/10/27 00:08:45;;;;;;;0.52;0.52;;;10.50;99.90;;;;;;4985901;28;20486;-66
2023/10/27 00:11:10;;;;;;;1.58;0.60;;;10.50;99.90;;;;;;4985079;28;20038;-66
2023/10/27 00:13:36;;;;;;;0.20;0.20;;;10.50;99.90;;;;;;4987512;28;20393;-66
2023/10/27 00:16:09;;;;;;;0.30;0.30;;;10.50;99.90;;;;;;4990230;28;20490;-66
2023/10/27 00:18:35;;;;;;;;;;;10.50;99.90;;;;;;4988035;28;20430;-66
2023/10/27 00:21:01;;;;;;;2.15;1.42;;;10.50;99.90;;;;;;4985233;28;20281;-65
2023/10/27 00:23:26;;;;;;;0.40;0.40;;;10.50;99.90;;;;;;4982812;28;20483;-66
2023/10/27 00:25:52;;;;;;;1.55;1.45;;;10.50;99.90;;;;;;4982389;28;20073;-65
2023/10/27 00:28:18;;;;;;;0.57;0.57;;;10.50;99.90;;;;;;4983885;28;20054;-65
2023/10/27 00:30:43;;;;;;;1.05;0.93;;;10.50;99.90;;;;;;4976723;28;20047;-65
2023/10/27 00:33:09;;;;;;;0.35;0.35;;;10.50;99.90;;;;;;4983947;28;20042;-66
2023/10/27 00:35:34;;;;;;;0.63;0.63;;;10.50;99.90;;;;;;4987468;28;20050;-66
2023/10/27 00:38:00;;;;;;;0.50;0.50;;;10.50;99.90;;;;;;4990443;28;20088;-66
2023/10/27 00:40:25;;;;;;;0.85;0.85;;;10.50;99.90;;;;;;4983659;28;20112;-65
2023/10/27 00:42:51;;;;;;;0.63;0.63;;;10.50;99.90;;;;;;4983314;28;20046;-66
2023/10/27 00:45:17;;;;;;;0.40;0.40;;;10.50;99.90;;;;;;4988982;28;20046;-66
2023/10/27 00:47:43;;;;;;;0.70;0.70;;;10.50;99.90;;;;;;4981604;28;20053;-65
2023/10/27 00:50:09;;;;;;;0.20;0.20;;;10.50;99.90;;;;;;4980100;28;20457;-66
2023/10/27 00:52:35;;;;;;;0.10;0.10;;;10.50;99.90;;;;;;4985579;28;20053;-66
2023/10/27 00:55:05;;;;;;;0.80;0.75;;;10.50;99.90;;;;;;4986872;28;20409;-66
2023/10/27 00:57:32;;;;;;;0.30;0.30;;;10.50;99.90;;;;;;4976676;28;20514;-67
2023/10/27 00:59:58;;;;;;;2.60;1.40;;;10.40;99.90;;;;;;4987389;28;20498;-66
2023/10/27 01:02:24;;;;;;;1.05;1.00;;;10.40;99.90;;;;;;4985354;28;20054;-66
2023/10/27 01:04:49;;;;;;;0.73;0.73;;;10.40;99.90;;;;;;4984468;28;20043;-66
2023/10/27 01:07:16;;;;;;;1.10;0.68;;;10.40;99.90;;;;;;4983290;28;20049;-66
2023/10/27 01:09:41;;;;;;;0.10;0.10;;;10.40;99.90;;;;;;4990281;28;20077;-66
2023/10/27 01:12:07;;;;;;;1.17;1.13;;;10.40;99.90;;;;;;4988506;28;20430;-66
2023/10/27 01:14:32;;;;;;;2.13;1.17;;;10.40;99.90;;;;;;4981610;28;20101;-66
2023/10/27 01:16:58;;;;;;;0.50;0.50;;;10.40;99.90;;;;;;4990842;28;20041;-66
2023/10/27 01:19:23;;;;;;;0.82;0.82;;;10.30;99.90;;;;;;4989729;28;20042;-66
2023/10/27 01:21:49;;;;;;;0.52;0.52;;;10.40;99.90;;;;;;4988849;28;20046;-65
2023/10/27 01:24:15;;;;;;;1.65;0.68;;;10.40;99.90;;;;;;4980731;28;20038;-66
2023/10/27 01:26:40;;;;;;;0.30;0.30;;;10.40;99.90;;;;;;4987073;28;20081;-66
2023/10/27 01:29:06;;;;;;;0.10;0.10;;;10.40;99.90;;;;;;4990169;28;20068;-66
2023/10/27 01:31:31;;;;;;;2.03;1.85;;;10.40;99.90;;;;;;4981927;28;20501;-66
2023/10/27 01:33:57;;;;;;;0.10;0.10;;;10.40;99.90;;;;;;4985683;28;20051;-66
2023/10/27 01:36:22;;;;;;;0.85;0.85;;;10.40;99.90;;;;;;4989565;28;20038;-66
2023/10/27 01:38:48;;;;;;;0.20;0.20;;;10.50;99.90;;;;;;4988623;28;20101;-65
2023/10/27 01:41:13;;;;;;;0.35;0.35;;;10.50;99.90;;;;;;4984089;28;20052;-66
2023/10/27 01:43:39;;;;;;;3.25;0.82;;;10.50;99.90;;;;;;4989662;28;20081;-66
2023/10/27 01:46:05;;;;;;;0.25;0.25;;;10.40;99.90;;;;;;4989328;28;20442;-66
2023/10/27 01:48:31;;;;;;;0.80;0.80;;;10.50;99.90;;;;;;4992904;28;20081;-66
2023/10/27 01:50:57;;;;;;;0.20;0.20;;;10.40;99.90;;;;;;4988071;28;20038;-66
2023/10/27 01:53:22;;;;;;;0.55;0.55;;;10.40;99.90;;;;;;4993491;28;20046;-66
2023/10/27 01:55:48;;;;;;;0.30;0.30;;;10.50;99.90;;;;;;4988854;28;20451;-66
2023/10/27 01:58:13;;;;;;;0.30;0.30;;;10.40;99.90;;;;;;4992851;28;20050;-66
2023/10/27 02:00:39;;;;;;;0.10;0.10;;;10.50;99.90;;;;;;4985718;28;20053;-65
2023/10/27 02:03:05;;;;;;;0.38;0.38;;;10.50;99.90;;;;;;4988167;28;20104;-66
2023/10/27 02:05:30;;;;;;;0.20;0.20;;;10.50;99.90;;;;;;4993495;28;20073;-66
2023/10/27 02:07:58;;;;;;;1.15;0.90;;;10.50;99.90;;;;;;4991707;28;20399;-66
2023/10/27 02:10:24;;;;;;;0.10;0.10;;;10.50;99.90;;;;;;4986357;28;20054;-66
2023/10/27 02:12:49;;;;;;;0.13;0.13;;;10.50;99.90;;;;;;4991627;28;20042;-66
2023/10/27 02:15:15;;;;;;;0.47;0.47;;;10.50;99.90;;;;;;4990621;28;20086;-66
2023/10/27 02:17:40;;;;;;;0.50;0.50;;;10.50;99.90;;;;;;4984057;28;20053;-65
2023/10/27 02:20:07;;;;;;;1.20;0.50;;;10.50;99.90;;;;;;4993538;28;20045;-66
2023/10/27 02:22:33;;;;;;;0.95;0.95;;;10.50;99.90;;;;;;4987400;28;20046;-66
2023/10/27 02:24:58;;;;;;;0.10;0.10;;;10.50;99.90;;;;;;4989022;28;20041;-66
2023/10/27 02:27:24;;;;;;;1.63;0.68;;;10.50;99.90;;;;;;4988593;28;20132;-66
2023/10/27 02:29:49;;;;;;;0.60;0.60;;;10.50;99.90;;;;;;4982900;28;20077;-65
2023/10/27 02:32:15;;;;;;;0.25;0.25;;;10.50;99.90;;;;;;4983774;28;20517;-66
2023/10/27 02:34:41;;;;;;;0.10;0.10;;;10.50;99.90;;;;;;4992887;28;20437;-65
2023/10/27 02:37:06;;;;;;;0.35;0.35;;;10.50;99.90;;;;;;4991067;28;20050;-66
2023/10/27 02:39:32;;;;;;;0.10;0.10;;;10.50;99.90;;;;;;4983053;28;20039;-66
2023/10/27 02:41:57;;;;;;;0.10;0.10;;;10.40;99.90;;;;;;4987842;28;20445;-66
2023/10/27 02:44:23;;;;;;;1.33;0.80;;;10.40;99.90;;;;;;4991771;28;20097;-66
2023/10/27 02:46:48;;;;;;;4.93;1.27;;;10.40;99.90;;;;;;4981005;28;20409;-66
2023/10/27 02:49:14;;;;;;;0.00;0.00;;;10.40;99.90;;;;;;4987952;28;20065;-66
2023/10/27 02:51:40;;;;;;;0.68;0.68;;;10.40;99.90;;;;;;4983076;28;20046;-65
2023/10/27 02:54:05;;;;;;;0.10;0.10;;;10.40;99.90;;;;;;4988066;28;20042;-66
2023/10/27 02:56:31;;;;;;;0.90;0.90;;;10.40;99.90;;;;;;4987554;28;20081;-66
2023/10/27 02:58:57;;;;;;;0.10;0.10;;;10.40;99.90;;;;;;4979930;28;20058;-66
2023/10/27 03:01:22;;;;;;;0.40;0.40;;;10.30;99.90;;;;;;4993145;28;20042;-66
2023/10/27 03:03:48;;;;;;;0.52;0.52;;;10.30;99.90;;;;;;4981522;28;20061;-65
2023/10/27 03:06:13;;;;;;;0.50;0.50;;;10.30;99.90;;;;;;4986339;28;20441;-65
2023/10/27 03:08:41;;;;;;;0.20;0.20;;;10.30;99.90;;;;;;4992559;28;20049;-65
2023/10/27 03:11:08;;;;;;;0.40;0.40;;;10.30;99.90;;;;;;4983682;28;20901;-66
2023/10/27 03:13:34;;;;;;;0.10;0.10;;;10.30;99.90;;;;;;4985586;28;20046;-66
2023/10/27 03:16:00;;;;;;;0.40;0.40;;;10.40;99.90;;;;;;4982446;28;20397;-66
2023/10/27 03:18:26;;;;;;;0.10;0.10;;;10.40;99.90;;;;;;4985211;28;20581;-66
2023/10/27 03:20:59;;;;;;;0.52;0.52;;;10.40;99.90;;;;;;4992851;28;20041;-66
2023/10/27 03:23:26;;;;;;;0.10;0.10;;;10.30;99.90;;;;;;4979091;28;20445;-66
2023/10/27 03:25:53;;;;;;;0.25;0.25;;;10.40;99.90;;;;;;4989812;28;20057;-66
2023/10/27 03:28:20;;;;;;;0.28;0.28;;;10.40;99.90;;;;;;4992466;28;20057;-66
2023/10/27 03:30:48;;;;;;;0.57;0.57;;;10.40;99.90;;;;;;4985421;28;20828;-66
2023/10/27 03:33:14;;;;;;;0.68;0.68;;;10.40;99.90;;;;;;4991156;28;20148;-66
2023/10/27 03:35:42;;;;;;;0.43;0.43;;;10.40;99.90;;;;;;4987381;28;20038;-66
2023/10/27 03:38:09;;;;;;;0.28;0.25;;;10.40;99.90;;;;;;4987096;28;20074;-66
2023/10/27 03:40:34;;;;;;;0.10;0.10;;;10.40;99.90;;;;;;4989567;28;20784;-66
2023/10/27 03:43:00;;;;;;;0.20;0.20;;;10.40;99.90;;;;;;4987172;28;20056;-66
2023/10/27 03:45:25;;;;;;;0.10;0.10;;;10.30;99.90;;;;;;4982563;28;20051;-66
2023/10/27 03:47:51;;;;;;;0.10;0.10;;;10.30;99.90;;;;;;4989295;28;20051;-66
2023/10/27 03:50:16;;;;;;;0.30;0.30;;;10.30;99.90;;;;;;4984389;28;20047;-66
2023/10/27 03:52:42;;;;;;;0.15;0.15;;;10.40;99.90;;;;;;4990743;28;20061;-66
2023/10/27 03:55:11;;;;;;;0.10;0.10;;;10.30;99.90;;;;;;4995619;28;20039;-66
2023/10/27 03:57:39;;;;;;;0.10;0.10;;;10.30;99.90;;;;;;4983159;28;20177;-66
2023/10/27 04:00:07;;;;;;;0.20;0.20;;;10.30;99.90;;;;;;4979634;28;20054;-66
2023/10/27 04:02:33;;;;;;;1.77;1.13;;;10.40;99.90;;;;;;4984410;28;20061;-66
2023/10/27 04:04:59;;;;;;;1.85;1.08;;;10.30;99.90;;;;;;4990572;28;20049;-65
2023/10/27 04:07:26;;;;;;;0.20;0.20;;;10.30;99.90;;;;;;4986985;28;20058;-66
2023/10/27 04:09:51;;;;;;;0.00;0.00;;;10.30;99.90;;;;;;4982502;28;20043;-65
2023/10/27 04:12:17;;;;;;;0.13;0.13;;;10.40;99.90;;;;;;4988013;28;20428;-66
2023/10/27 04:14:42;;;;;;;0.10;0.10;;;10.40;99.90;;;;;;4985630;28;20650;-66
2023/10/27 04:17:08;;;;;;;0.10;0.10;;;10.40;99.90;;;;;;4986761;28;20442;-65
2023/10/27 04:19:33;;;;;;;0.32;0.32;;;10.30;99.90;;;;;;4987551;28;20095;-66
2023/10/27 04:21:59;;;;;;;0.47;0.20;;;10.30;99.90;;;;;;4979782;28;20122;-65
2023/10/27 04:24:25;;;;;;;0.30;0.30;;;10.40;99.90;;;;;;4989897;28;20042;-66
2023/10/27 04:26:51;;;;;;;0.15;0.15;;;10.40;99.90;;;;;;4983896;28;20521;-66
2023/10/27 04:29:17;;;;;;;0.10;0.10;;;10.40;99.90;;;;;;4984368;28;20049;-66
2023/10/27 04:31:44;;;;;;;1.48;0.55;;;10.40;99.90;;;;;;4984473;28;20144;-66
2023/10/27 04:34:10;;;;;;;0.00;0.00;;;10.40;99.90;;;;;;4983014;28;20084;-65
2023/10/27 04:36:36;;;;;;;0.52;0.52;;;10.40;99.90;;;;;;4982385;28;20100;-66
2023/10/27 04:39:03;;;;;;;1.75;1.55;;;10.40;99.90;;;;;;4999542;28;20042;-66
2023/10/27 04:41:30;;;;;;;0.73;0.73;;;10.40;99.90;;;;;;4976665;28;20073;-66
2023/10/27 04:43:56;;;;;;;0.95;0.95;;;10.40;99.90;;;;;;4987766;28;20562;-65
2023/10/27 04:46:22;;;;;;;0.05;0.05;;;10.40;99.90;;;;;;4983156;28;20058;-65
2023/10/27 04:48:48;;;;;;;0.93;0.93;;;10.40;99.90;;;;;;4984627;28;20046;-66
2023/10/27 04:51:13;;;;;;;0.45;0.45;;;10.30;99.90;;;;;;4987247;28;20121;-66
2023/10/27 04:53:39;;;;;;;0.10;0.10;;;10.40;99.90;;;;;;4979994;28;20046;-66
2023/10/27 04:56:05;;;;;;;0.40;0.40;;;10.40;99.90;;;;;;4988857;28;20038;-65
2023/10/27 04:58:30;;;;;;;0.43;0.43;;;10.40;99.90;;;;;;4982831;28;20144;-65
2023/10/27 05:00:56;;;;;;;0.20;0.20;;;10.40;99.90;;;;;;4989029;28;20490;-66
2023/10/27 05:03:21;;;;;;;0.10;0.10;;;10.40;99.90;;;;;;4979489;28;20082;-66
2023/10/27 05:05:47;;;;;;;0.15;0.15;;;10.40;99.90;;;;;;4988163;28;20050;-66
2023/10/27 05:08:13;;;;;;;0.28;0.28;;;10.40;99.90;;;;;;4990242;28;20525;-65
2023/10/27 05:10:40;;;;;;;0.17;0.17;;;10.30;99.90;;;;;;4980218;28;20046;-66
2023/10/27 05:13:06;;;;;;;0.90;0.47;;;10.40;99.90;;;;;;4987695;28;20462;-65
2023/10/27 05:15:32;;;;;;;0.10;0.10;;;10.30;99.90;;;;;;4985715;28;20096;-66
2023/10/27 05:18:04;;;;;;;0.57;0.52;;;10.40;99.90;;;;;;4988095;28;20046;-66
2023/10/27 05:20:31;;;;;;;0.30;0.30;;;10.30;99.90;;;;;;4986064;28;20121;-66
2023/10/27 05:22:56;;;;;;;0.40;0.35;;;10.30;99.90;;;;;;4984550;28;20038;-65
2023/10/27 05:25:22;;;;;;;0.10;0.10;;;10.30;99.90;;;;;;4988598;28;20031;-65
2023/10/27 05:27:48;;;;;;;0.38;0.38;;;10.30;99.90;;;;;;4977718;28;20050;-65
2023/10/27 05:30:13;;;;;;;0.38;0.38;;;10.30;99.90;;;;;;4987455;28;20049;-66
2023/10/27 05:32:39;;;;;;;0.10;0.10;;;10.30;99.90;;;;;;4981817;28;20085;-66
2023/10/27 05:35:05;;;;;;;0.73;0.73;;;10.30;99.90;;;;;;4983485;28;20506;-66
2023/10/27 05:37:31;;;;;;;0.32;0.32;;;10.30;99.90;;;;;;4988375;28;20043;-65
2023/10/27 05:39:56;;;;;;;0.10;0.10;;;10.30;99.90;;;;;;4988668;28;20065;-66
2023/10/27 05:42:22;;;;;;;0.10;0.10;;;10.30;99.90;;;;;;4982523;28;20041;-65
2023/10/27 05:44:47;;;;;;;0.10;0.10;;;10.20;99.90;;;;;;4989878;28;20111;-66
2023/10/27 05:47:13;;;;;;;0.30;0.30;;;10.30;99.90;;;;;;4979573;28;20042;-65
2023/10/27 05:49:38;;;;;;;0.28;0.28;;;10.20;99.90;;;;;;4982891;28;20103;-66
2023/10/27 05:52:04;;;;;;;0.63;0.63;;;10.30;99.90;;;;;;4986117;28;20046;-66
2023/10/27 05:54:30;;;;;;;0.10;0.10;;;10.30;99.90;;;;;;4979172;28;20045;-66
2023/10/27 05:56:56;;;;;;;0.15;0.15;;;10.30;99.90;;;;;;4985877;28;20046;-66
2023/10/27 05:59:21;;;;;;;0.10;0.10;;;10.30;99.90;;;;;;4984387;28;20057;-65
2023/10/27 06:01:48;;;;;;;0.10;0.10;;;10.20;99.90;;;;;;4984565;28;20053;-65
2023/10/27 06:04:15;;;;;;;0.10;0.10;;;10.20;99.90;;;;;;4978909;28;20109;-65
2023/10/27 06:06:40;;;;;;;0.10;0.10;;;10.20;99.90;;;;;;4984905;28;20149;-66
2023/10/27 06:09:06;;;;;;;0.73;0.73;;;10.20;99.90;;;;;;4986956;28;20248;-65
2023/10/27 06:11:32;;;;;;;0.73;0.73;;;10.20;99.90;;;;;;4978876;28;20046;-65
2023/10/27 06:13:58;;;;;;;0.28;0.28;;;10.20;99.90;;;;;;4989497;28;20132;-65
2023/10/27 06:16:24;;;;;;;0.10;0.10;;;10.20;99.90;;;;;;4982954;28;20397;-65
2023/10/27 06:18:52;;;;;;;0.38;0.38;;;10.20;99.90;;;;;;4983947;28;20043;-65
2023/10/27 06:21:18;;;;;;;0.17;0.17;;;10.20;99.90;;;;;;4983425;28;20073;-65
2023/10/27 06:23:43;;;;;;;0.17;0.17;;;10.20;99.90;;;;;;4988033;28;20494;-65
2023/10/27 06:26:09;;;;;;;0.60;0.60;;;10.10;99.90;;;;;;4983649;28;20070;-65
2023/10/27 06:28:35;;;;;;;0.10;0.10;;;10.10;99.90;;;;;;4991885;28;20046;-65
2023/10/27 06:31:02;;;;;;;0.55;0.30;;;10.10;99.90;;;;;;4985859;28;20125;-65
2023/10/27 06:33:28;;;;;;;0.70;0.70;;;10.10;99.90;;;;;;4985321;28;20129;-65
2023/10/27 06:35:55;;;;;;;0.70;0.52;;;10.10;99.90;;;;;;4989761;28;20582;-65
2023/10/27 06:38:20;;;;;;;1.35;0.90;;;10.00;99.90;;;;;;4984261;28;20145;-65
2023/10/27 06:40:47;;;;;;;0.10;0.10;;;10.10;99.90;;;;;;4991934;28;20387;-65
2023/10/27 06:43:12;;;;;;;0.08;0.08;;;10.00;99.90;;;;;;4991580;28;20060;-65
2023/10/27 06:45:38;;;;;;;0.32;0.32;;;10.00;99.90;;;;;;4989887;28;20045;-65
2023/10/27 06:48:04;;;;;;;0.20;0.20;;;10.10;99.90;;;;;;4979239;28;20074;-65
2023/10/27 06:50:29;;;;;;;0.47;0.47;;;10.00;99.90;;;;;;4987137;28;20055;-65
2023/10/27 06:52:55;;;;;;;0.10;0.10;;;10.00;99.90;;;;;;4991038;28;20042;-65
2023/10/27 06:55:21;;;;;;;0.10;0.10;;;10.00;99.90;;;;;;4986708;28;20459;-65
2023/10/27 06:57:47;;;;;;;0.50;0.50;;;10.00;99.90;;;;;;4987317;28;20050;-65
2023/10/27 07:00:13;;;;;;;0.10;0.10;;;10.10;99.90;;;;;;4984174;28;20061;-65
2023/10/27 07:02:39;;;;;;;0.90;0.70;;;10.10;99.90;;;;;;4985837;28;20081;-65
2023/10/27 07:05:05;;;;;;;0.68;0.68;;;10.10;99.90;;;;;;4991196;28;20046;-66
2023/10/27 07:07:31;;;;;;;0.10;0.10;;;10.20;99.90;;;;;;4983195;28;20455;-65
2023/10/27 07:09:57;;;;;;;0.20;0.20;;;10.20;99.90;;;;;;4985486;28;20076;-65
2023/10/27 07:12:22;;;;;;;0.30;0.30;;;10.20;99.90;;;;;;4994256;28;20121;-65
2023/10/27 07:14:48;;;;;;;0.13;0.13;;;10.20;99.90;;;;;;4992754;28;20049;-65
2023/10/27 07:17:13;;;;;;;0.10;0.10;;;10.20;99.90;;;;;;4992462;28;20046;-65
2023/10/27 07:19:39;;;;;;;0.75;0.75;;;10.20;99.90;;;;;;4995628;28;20088;-65
2023/10/27 07:22:05;;;;;;;0.17;0.17;;;10.20;99.90;;;;;;4993824;28;20054;-66
2023/10/27 07:24:33;;;;;;;2.33;1.25;;;10.20;99.90;;;;;;4992556;28;20394;-65
2023/10/27 07:26:59;;;;;;;0.55;0.55;;;10.20;99.90;;;;;;4994673;28;20042;-65
2023/10/27 07:29:25;;;;;;;0.10;0.10;;;10.20;99.90;;;;;;4990063;28;20043;-65
2023/10/27 07:31:51;;;;;;;0.10;0.10;;;10.20;99.90;;;;;;4973461;28;20042;-66
2023/10/27 07:34:16;;;;;;;0.32;0.32;;;10.30;99.90;;;;;;4985639;28;20466;-65
2023/10/27 07:36:42;;;;;;;0.10;0.10;;;10.30;99.90;;;;;;4981418;28;20039;-65
2023/10/27 07:39:07;;;;;;;1.90;0.65;;;10.30;99.90;;;;;;4984032;28;20054;-65
2023/10/27 07:41:35;;;;;;;0.25;0.25;;;10.40;99.90;;;;;;4983395;28;20047;-65
2023/10/27 07:44:04;;;;;;;0.20;0.20;;;10.40;99.90;;;;;;4989765;28;20133;-65
2023/10/27 07:46:31;;;;;;;0.32;0.32;;;10.40;99.90;;;;;;4988198;28;20042;-65
2023/10/27 07:48:57;;;;;;;0.10;0.10;;;10.50;99.90;;;;;;4985611;28;20054;-67
2023/10/27 07:51:23;;;;;;;0.10;0.10;;;10.50;99.90;;;;;;4984068;28;20510;-65
2023/10/27 07:53:49;;;;;;;0.85;0.65;;;10.50;99.90;;;;;;4986720;28;20297;-65
2023/10/27 07:56:16;;;;;;;0.00;0.00;;;10.50;99.90;;;;;;4989957;28;20833;-65
2023/10/27 07:58:42;;;;;;;0.95;0.60;;;10.60;99.90;;;;;;4984282;28;20070;-65
2023/10/27 08:01:07;;;;;;;0.10;0.10;;;10.60;99.90;;;;;;4983574;28;20070;-65
2023/10/27 08:03:38;;;;;;;0.20;0.20;;;10.60;99.90;;;;;;4991030;28;20042;-65
2023/10/27 08:06:07;;;;;;;0.98;0.90;;;10.60;99.90;;;;;;4987397;28;20050;-65
2023/10/27 08:08:34;;;;;;;0.00;0.00;;;10.70;99.90;;;;;;4982677;28;20050;-66
2023/10/27 08:11:00;;;;;;;0.10;0.10;;;10.80;99.90;;;;;;4991877;28;20498;-65
2023/10/27 08:13:25;;;;;;;0.57;0.57;;;10.80;99.90;;;;;;4999893;28;20485;-65
2023/10/27 08:15:51;;;;;;;0.10;0.10;;;10.80;99.90;;;;;;4984507;28;20049;-65
2023/10/27 08:18:17;;;;;;;0.28;0.28;;;10.80;99.90;;;;;;4989199;28;20441;-65
2023/10/27 08:20:43;;;;;;;0.30;0.30;;;10.80;99.90;;;;;;4990595;28;20081;-65
2023/10/27 08:23:09;;;;;;;0.47;0.47;;;10.80;99.90;;;;;;4985784;28;20047;-65
2023/10/27 08:25:36;;;;;;;0.10;0.10;;;10.90;99.90;;;;;;4982910;28;20053;-65
2023/10/27 08:28:03;;;;;;;0.30;0.30;;;10.90;99.90;;;;;;4990632;28;20058;-65
2023/10/27 08:30:29;;;;;;;1.55;0.77;;;10.90;99.90;;;;;;4985898;28;20050;-66
2023/10/27 08:32:54;;;;;;;0.00;0.00;;;11.00;99.90;;;;;;4978606;28;20038;-65
2023/10/27 08:35:20;;;;;;;0.35;0.35;;;11.00;99.90;;;;;;4984284;28;20502;-66
2023/10/27 08:37:45;;;;;;;0.40;0.40;;;11.00;99.90;;;;;;4988275;28;20045;-65
2023/10/27 08:40:12;;;;;;;0.10;0.10;;;11.10;99.90;;;;;;4991198;28;20478;-66
2023/10/27 08:42:42;;;;;;;0.28;0.28;;;11.10;99.90;;;;;;4984713;28;20054;-65
2023/10/27 08:45:08;;;;;;;0.22;0.22;;;11.20;99.90;;;;;;4984647;28;20073;-65
2023/10/27 08:47:34;;;;;;;0.10;0.10;;;11.20;99.90;;;;;;4989442;28;20049;-65
2023/10/27 08:50:04;;;;;;;0.08;0.08;;;11.20;99.90;;;;;;4984141;28;20064;-65
2023/10/27 08:52:32;;;;;;;0.30;0.30;;;11.20;99.90;;;;;;4980405;28;20050;-66
2023/10/27 08:55:07;;;;;;;0.10;0.10;;;11.20;99.90;;;;;;4988248;28;20437;-65
2023/10/27 08:57:33;;;;;;;0.77;0.55;;;11.20;99.90;;;;;;4978232;28;20093;-66
2023/10/27 08:59:59;;;;;;;0.25;0.25;;;11.20;99.90;;;;;;4982436;28;20501;-65
2023/10/27 09:02:32;;;;;;;1.25;0.95;;;11.10;99.90;;;;;;4986739;28;20085;-66
2023/10/27 09:05:06;;;;;;;0.45;0.45;;;11.20;99.90;;;;;;4988909;28;20042;-66
2023/10/27 09:07:32;;;;;;;0.47;0.47;;;11.10;99.90;;;;;;4985941;28;20108;-65
2023/10/27 09:10:02;;;;;;;0.30;0.30;;;11.20;99.90;;;;;;4986658;28;20533;-65
2023/10/27 09:12:30;;;;;;;1.17;0.90;;;11.20;99.90;;;;;;4982044;28;20073;-65
2023/10/27 09:15:01;;;;;;;1.00;0.75;;;11.20;99.90;;;;;;4983067;28;20153;-65
2023/10/27 09:17:29;;;;;;;0.95;0.32;;;11.20;99.90;;;;;;4982744;28;20089;-66
2023/10/27 09:20:09;;;;;;;1.65;0.65;;;11.30;99.90;;;;;;4980215;28;20038;-66
2023/10/27 09:22:35;;;;;;;0.43;0.30;;;11.30;99.90;;;;;;4981988;28;20054;-66
2023/10/27 09:25:13;;;;;;;0.13;0.13;;;11.40;99.90;;;;;;4977196;28;20128;-65
2023/10/27 09:27:43;;;;;;;9.85;2.20;;;11.40;99.90;;;;;;4986731;28;20042;-65
2023/10/27 09:30:12;;;;;;;0.10;0.10;;;11.50;99.90;;;;;;4980595;28;20608;-65
2023/10/27 09:32:40;;;;;;;0.20;0.20;;;11.50;99.90;;;;;;4986912;28;20038;-65
2023/10/27 09:35:17;;;;;;;0.20;0.20;;;11.50;99.90;;;;;;4984736;28;20089;-65
2023/10/27 09:37:43;;;;;;;0.32;0.32;;;11.50;99.90;;;;;;4982228;28;20097;-65
2023/10/27 09:40:11;;;;;;;0.77;0.77;;;11.60;99.90;;;;;;4988091;28;20038;-65
2023/10/27 09:42:37;;;;;;;1.08;0.57;;;11.60;99.90;;;;;;4987583;28;20056;-65
2023/10/27 09:45:14;;;;;;;0.47;0.47;;;11.70;99.90;;;;;;4981381;28;20057;-65
2023/10/27 09:47:46;;;;;;;2.05;1.20;;;11.70;99.90;;;;;;4980012;28;20040;-65
2023/10/27 09:50:19;;;;;;;0.10;0.10;;;11.70;99.90;;;;;;4983360;28;20062;-65
2023/10/27 09:52:46;;;;;;;0.10;0.10;;;11.80;99.90;;;;;;4981684;28;20038;-65
2023/10/27 09:55:19;;;;;;;0.20;0.20;;;11.90;99.90;;;;;;4980304;28;20541;-65
2023/10/27 09:57:45;;;;;;;0.10;0.10;;;11.90;99.90;;;;;;4981277;28;20043;-66
2023/10/27 10:00:14;;;;;;;0.20;0.20;;;12.00;99.90;;;;;;4981399;28;20050;-65
2023/10/27 10:02:43;;;;;;;1.67;0.85;;;11.80;99.90;;;;;;4987900;28;20043;-65
2023/10/27 10:05:09;;;;;;;0.20;0.20;;;11.90;99.90;;;;;;4988913;28;20510;-65
2023/10/27 10:07:51;;;;;;;0.20;0.20;;;11.90;99.90;;;;;;4991837;28;20418;-65
2023/10/27 10:10:18;;;;;;;0.10;0.10;;;11.90;99.90;;;;;;4990892;28;20053;-65
2023/10/27 10:13:26;;;;;;;0.40;0.40;;;12.00;99.90;;;;;;4990952;28;20494;-65
2023/10/27 10:15:59;;;;;;;0.25;0.25;;;11.90;99.90;;;;;;4990782;28;20039;-65
2023/10/27 10:18:25;;;;;;;0.25;0.25;;;12.00;99.90;;;;;;4979475;28;20061;-65
2023/10/27 10:20:52;;;;;;;0.13;0.13;;;11.90;99.90;;;;;;4990607;28;20058;-65
2023/10/27 10:23:19;;;;;;;1.17;0.52;;;11.90;99.90;;;;;;4981244;28;20050;-65
2023/10/27 10:25:55;;;;;;;0.45;0.45;;;11.90;99.90;;;;;;4988411;28;20046;-64
2023/10/27 10:28:22;;;;;;;0.13;0.13;;;11.90;99.90;;;;;;4989481;28;20046;-65
2023/10/27 10:31:09;;;;;;;0.10;0.10;;;12.00;99.90;;;;;;4975962;28;20058;-65
2023/10/27 10:33:40;;;;;;;0.25;0.25;;;12.00;99.90;;;;;;4985521;28;20054;-65
2023/10/27 10:36:15;;;;;;;0.50;0.50;;;12.00;99.90;;;;;;4984345;28;20529;-65
2023/10/27 10:38:50;;;;;;;0.57;0.57;;;12.00;99.90;;;;;;4993124;28;20034;-65
2023/10/27 10:41:16;;;;;;;0.00;0.00;;;12.00;99.90;;;;;;4984081;28;20049;-65
2023/10/27 10:43:42;;;;;;;0.40;0.40;;;12.00;99.90;;;;;;4989534;28;20529;-66
2023/10/27 10:46:13;;;;;;;0.20;0.20;;;12.00;99.90;;;;;;4988255;28;20070;-66
2023/10/27 10:48:44;;;;;;;0.10;0.10;;;12.00;99.90;;;;;;4991689;28;20058;-65
2023/10/27 10:51:13;;;;;;;0.63;0.63;;;11.90;99.90;;;;;;4983693;28;20092;-65
2023/10/27 10:53:39;;;;;;;0.00;0.00;;;11.90;99.90;;;;;;4985897;28;20046;-65
2023/10/27 10:56:05;;;;;;;0.10;0.10;;;11.90;99.90;;;;;;4990609;28;20363;-65
2023/10/27 10:58:40;;;;;;;0.40;0.40;;;12.00;99.90;;;;;;4981643;28;20058;-65
2023/10/27 11:01:18;;;;;;;0.28;0.28;;;12.00;99.90;;;;;;4982815;28;20050;-65
2023/10/27 11:03:48;;;;;;;1.23;1.15;;;12.00;99.90;;;;;;4983396;28;20451;-65
2023/10/27 11:06:14;;;;;;;0.80;0.47;;;12.00;99.90;;;;;;4991076;28;20046;-65
2023/10/27 11:08:39;;;;;;;0.22;0.22;;;12.00;99.90;;;;;;4984410;28;20042;-65
2023/10/27 11:11:09;;;;;;;0.20;0.20;;;12.00;99.90;;;;;;4984829;28;20045;-65
2023/10/27 11:13:43;;;;;;;0.30;0.30;;;12.00;99.90;;;;;;4991323;28;20849;-65
2023/10/27 11:16:15;;;;;;;0.00;0.00;;;12.00;99.90;;;;;;4986729;28;20434;-65
2023/10/27 11:18:40;;;;;;;0.55;0.55;;;12.00;99.90;;;;;;4988226;28;20061;-65
2023/10/27 11:21:06;;;;;;;0.65;0.65;;;12.00;99.90;;;;;;4991306;28;20043;-65
2023/10/27 11:23:32;;;;;;;1.23;0.63;;;12.00;99.90;;;;;;4985101;28;20043;-65
2023/10/27 11:26:05;;;;;;;0.30;0.30;;;11.90;99.90;;;;;;4985978;28;20049;-65
2023/10/27 11:28:39;;;;;;;0.32;0.32;;;12.00;99.90;;;;;;4984187;28;20144;-65
2023/10/27 11:31:15;;;;;;;0.40;0.40;;;11.90;99.90;;;;;;4981738;28;20109;-65
2023/10/27 11:34:03;;;;;;;0.13;0.13;;;12.00;99.90;;;;;;4991013;28;20038;-65
2023/10/27 11:36:38;;;;;;;0.32;0.32;;;11.90;99.90;;;;;;4991025;28;20057;-65
2023/10/27 11:39:18;;;;;;;1.75;0.95;;;11.90;99.90;;;;;;4986505;28;20494;-65
2023/10/27 11:41:48;;;;;;;0.25;0.25;;;11.90;99.90;;;;;;4984940;28;20057;-65
2023/10/27 11:44:15;;;;;;;0.10;0.10;;;12.00;99.90;;;;;;4992104;28;20077;-65
2023/10/27 11:46:51;;;;;;;0.55;0.55;;;11.90;99.90;;;;;;4982658;28;20066;-65
2023/10/27 11:49:17;;;;;;;0.10;0.10;;;12.00;99.90;;;;;;4982566;28;20433;-65
2023/10/27 11:51:47;;;;;;;0.32;0.32;;;12.00;99.90;;;;;;4991375;28;20088;-64
2023/10/27 11:54:15;;;;;;;0.20;0.20;;;12.00;99.90;;;;;;4987196;28;20390;-65
2023/10/27 11:56:41;;;;;;;0.10;0.10;;;12.00;99.90;;;;;;4984005;28;20049;-64
2023/10/27 11:59:07;;;;;;;0.52;0.52;;;11.90;99.90;;;;;;4983080;28;20109;-64
2023/10/27 12:01:33;;;;;;;0.57;0.57;;;11.90;99.90;;;;;;4983277;28;20054;-64
2023/10/27 12:04:00;;;;;;;0.32;0.32;;;12.00;99.90;;;;;;4986509;28;20112;-64
2023/10/27 12:06:26;;;;;;;0.00;0.00;;;11.90;99.90;;;;;;4979020;28;20084;-64
2023/10/27 12:08:51;;;;;;;0.30;0.30;;;11.90;99.90;;;;;;4987638;28;20073;-64
2023/10/27 12:11:17;;;;;;;0.20;0.20;;;11.90;99.90;;;;;;4976152;28;20094;-64
2023/10/27 12:13:44;;;;;;;0.10;0.10;;;11.90;99.90;;;;;;4988411;28;20046;-64
2023/10/27 12:16:10;;;;;;;0.10;0.10;;;11.90;99.90;;;;;;4993391;28;20065;-64
2023/10/27 12:18:36;;;;;;;0.13;0.13;;;11.90;99.90;;;;;;4993051;28;20057;-64
2023/10/27 12:21:02;;;;;;;0.88;0.88;;;11.80;99.90;;;;;;4990867;28;20038;-64
2023/10/27 12:23:32;;;;;;;0.20;0.20;;;11.80;99.90;;;;;;4978182;28;20093;-64
2023/10/27 12:25:58;;;;;;;0.10;0.10;;;11.80;99.90;;;;;;4990712;28;20053;-64
2023/10/27 12:28:25;;;;;;;0.85;0.85;;;11.90;99.90;;;;;;4985645;28;20073;-64
2023/10/27 12:30:50;;;;;;;1.02;0.98;;;11.90;99.90;;;;;;4979152;28;20043;-64
2023/10/27 12:33:16;;;;;;;0.30;0.30;;;11.90;99.90;;;;;;4984392;28;20505;-64
2023/10/27 12:35:41;;;;;;;0.75;0.75;;;11.80;99.90;;;;;;4990613;28;20042;-64
2023/10/27 12:38:07;;;;;;;0.20;0.20;;;11.80;99.90;;;;;;4978700;28;20043;-64
2023/10/27 12:40:34;;;;;;;0.30;0.30;;;11.80;99.90;;;;;;4983439;28;20042;-64
2023/10/27 12:43:01;;;;;;;0.10;0.10;;;11.80;99.90;;;;;;4981398;28;20125;-64
2023/10/27 12:45:26;;;;;;;0.20;0.20;;;11.80;99.90;;;;;;4965501;28;20058;-64
2023/10/27 12:47:52;;;;;;;0.32;0.32;;;11.70;99.90;;;;;;4976749;28;20050;-64